createdAt,value
2022-08-19T00:02:04.501Z,11.10
2022-08-19T00:04:37.372Z,16.67
2022-08-19T00:07:07.565Z,14.43
2022-08-19T00:09:34.921Z,12.37
2022-08-19T00:12:02.706Z,12.60
2022-08-19T00:14:32.320Z,13.07
2022-08-19T00:16:59.887Z,15.40
2022-08-19T00:19:30.335Z,13.33
2022-08-19T00:21:57.549Z,10.97
2022-08-19T00:24:24.834Z,9.80
2022-08-19T00:26:53.523Z,11.53
2022-08-19T00:29:23.203Z,10.53
2022-08-19T00:31:54.492Z,11.83
2022-08-19T00:34:23.159Z,10.47
2022-08-19T00:36:50.447Z,10.83
2022-08-19T00:39:18.481Z,14.27
2022-08-19T00:41:49.945Z,13.50
2022-08-19T00:44:28.336Z,14.13
2022-08-19T00:46:59.836Z,14.07
2022-08-19T00:49:52.242Z,14.00
2022-08-19T00:52:29.783Z,9.80
2022-08-19T00:54:59.397Z,12.67
2022-08-19T00:57:35.246Z,11.70
2022-08-19T01:00:07.901Z,12.83
2022-08-19T01:02:34.807Z,16.40
2022-08-19T01:05:09.026Z,14.77
2022-08-19T01:07:39.702Z,14.67
2022-08-19T01:10:12.345Z,11.73
2022-08-19T01:12:40.373Z,14.83
2022-08-19T01:15:10.679Z,13.93
2022-08-19T01:17:41.797Z,11.50
2022-08-19T01:20:17.545Z,12.87
2022-08-19T01:22:48.338Z,9.93
2022-08-19T01:25:19.477Z,11.07
2022-08-19T01:27:53.346Z,10.67
2022-08-19T01:30:34.060Z,8.90
2022-08-19T01:33:02.629Z,11.70
2022-08-19T01:35:32.408Z,9.63
2022-08-19T01:38:08.516Z,9.63
2022-08-19T01:40:40.898Z,12.33
2022-08-19T01:43:08.708Z,11.93
2022-08-19T01:45:38.432Z,10.27
2022-08-19T01:48:06.009Z,12.33
2022-08-19T01:50:35.839Z,9.43
2022-08-19T01:53:08.044Z,12.87
2022-08-19T01:55:41.544Z,10.70
2022-08-19T01:58:19.687Z,8.60
2022-08-19T02:00:48.592Z,9.03
2022-08-19T02:03:16.905Z,11.73
2022-08-19T02:05:46.545Z,13.57
2022-08-19T02:08:13.724Z,12.03
2022-08-19T02:10:44.027Z,9.03
2022-08-19T02:13:12.393Z,13.20
2022-08-19T02:15:39.816Z,12.70
2022-08-19T02:18:08.287Z,10.60
2022-08-19T02:20:36.614Z,11.20
2022-08-19T02:23:04.476Z,11.33
2022-08-19T02:25:31.512Z,9.70
2022-08-19T02:27:58.488Z,10.00
2022-08-19T02:30:25.973Z,12.80
2022-08-19T02:32:54.001Z,9.40
2022-08-19T02:35:22.388Z,10.27
2022-08-19T02:38:08.118Z,9.43
2022-08-19T02:40:35.672Z,8.93
2022-08-19T02:43:09.377Z,11.37
2022-08-19T02:45:40.520Z,10.07
2022-08-19T02:48:17.925Z,10.20
2022-08-19T02:50:54.687Z,8.90
2022-08-19T02:53:27.777Z,9.27
2022-08-19T02:55:55.825Z,9.23
2022-08-19T02:58:25.163Z,10.23
2022-08-19T03:00:57.408Z,10.40
2022-08-19T03:03:24.547Z,9.50
2022-08-19T03:05:56.851Z,10.40
2022-08-19T03:08:26.720Z,9.20
2022-08-19T03:10:54.796Z,9.13
2022-08-19T03:13:24.214Z,9.67
2022-08-19T03:15:51.243Z,7.77
2022-08-19T03:18:19.079Z,11.60
2022-08-19T03:20:53.024Z,9.77
2022-08-19T03:23:19.973Z,10.70
2022-08-19T03:26:03.991Z,9.00
2022-08-19T03:28:38.803Z,8.83
2022-08-19T03:31:43.584Z,8.00
2022-08-19T03:33:59.714Z,8.90
2022-08-19T03:36:29.612Z,11.40
2022-08-19T03:39:01.480Z,8.53
2022-08-19T03:41:44.487Z,7.17
2022-08-19T03:44:23.065Z,6.70
2022-08-19T03:47:00.014Z,9.73
2022-08-19T03:49:31.305Z,8.87
2022-08-19T03:52:01.397Z,7.90
2022-08-19T03:54:29.407Z,8.23
2022-08-19T03:56:58.150Z,8.50
2022-08-19T03:59:30.320Z,9.53
2022-08-19T04:02:00.791Z,7.57
2022-08-19T04:04:29.796Z,7.43
2022-08-19T04:06:59.156Z,7.50
2022-08-19T04:09:26.776Z,8.23
2022-08-19T04:11:57.898Z,8.87
2022-08-19T04:14:31.192Z,9.97
2022-08-19T04:17:00.463Z,8.90
2022-08-19T04:19:29.975Z,6.67
2022-08-19T04:21:56.917Z,7.37
2022-08-19T04:24:24.553Z,8.03
2022-08-19T04:26:52.404Z,8.27
2022-08-19T04:29:25.691Z,7.37
2022-08-19T04:31:55.700Z,6.60
2022-08-19T04:34:27.803Z,7.90
2022-08-19T04:36:57.098Z,8.33
2022-08-19T04:39:50.491Z,10.07
2022-08-19T04:42:45.513Z,7.77
2022-08-19T04:45:15.919Z,10.50
2022-08-19T04:47:47.699Z,9.20
2022-08-19T04:50:27.081Z,8.30
2022-08-19T04:52:54.649Z,9.40
2022-08-19T04:55:22.057Z,8.37
2022-08-19T04:57:49.821Z,7.50
2022-08-19T05:00:16.879Z,9.07
2022-08-19T05:02:44.113Z,8.53
2022-08-19T05:05:11.448Z,10.63
2022-08-19T05:07:38.352Z,12.57
2022-08-19T05:10:06.978Z,13.93
2022-08-19T05:12:34.716Z,13.67
2022-08-19T05:15:05.377Z,14.90
2022-08-19T05:17:37.773Z,13.03
2022-08-19T05:20:27.012Z,15.10
2022-08-19T05:22:54.129Z,14.50
2022-08-19T05:25:22.397Z,16.23
2022-08-19T05:27:49.712Z,15.47
2022-08-19T05:30:18.274Z,14.90
2022-08-19T05:32:45.721Z,14.43
2022-08-19T05:35:13.087Z,14.37
2022-08-19T05:37:43.781Z,13.90
2022-08-19T05:40:11.830Z,14.30
2022-08-19T05:42:39.017Z,13.93
2022-08-19T05:45:07.390Z,13.57
2022-08-19T05:47:34.326Z,14.00
2022-08-19T05:50:05.154Z,14.17
2022-08-19T05:52:32.566Z,14.97
2022-08-19T05:55:01.046Z,15.40
2022-08-19T05:57:29.924Z,16.03
2022-08-19T05:59:59.100Z,16.07
2022-08-19T06:02:28.391Z,14.73
2022-08-19T06:04:56.102Z,15.43
2022-08-19T06:07:23.801Z,14.73
2022-08-19T06:10:00.585Z,14.57
2022-08-19T06:12:35.189Z,14.80
2022-08-19T06:15:12.484Z,15.43
2022-08-19T06:17:40.080Z,16.00
2022-08-19T06:20:14.150Z,15.87
2022-08-19T06:22:45.381Z,14.83
2022-08-19T06:25:14.690Z,15.30
2022-08-19T06:28:11.481Z,15.43
2022-08-19T06:30:29.971Z,15.23
2022-08-19T06:32:56.885Z,16.33
2022-08-19T06:35:24.195Z,14.70
2022-08-19T06:37:51.237Z,13.67
2022-08-19T06:40:18.590Z,11.93
2022-08-19T06:42:54.424Z,11.43
2022-08-19T06:45:24.577Z,10.00
2022-08-19T06:47:55.210Z,10.43
2022-08-19T06:50:25.222Z,12.90
2022-08-19T06:52:52.332Z,8.97
2022-08-19T06:55:20.209Z,10.33
2022-08-19T06:57:49.080Z,9.13
2022-08-19T07:00:16.842Z,8.33
2022-08-19T07:02:49.685Z,8.23
2022-08-19T07:05:23.394Z,7.67
2022-08-19T07:07:50.978Z,7.60
2022-08-19T07:10:19.318Z,9.67
2022-08-19T07:12:47.521Z,7.60
2022-08-19T07:15:14.597Z,8.27
2022-08-19T07:17:42.163Z,8.33
2022-08-19T07:20:11.102Z,8.57
2022-08-19T07:22:40.080Z,8.60
2022-08-19T07:25:10.728Z,8.83
2022-08-19T07:27:39.490Z,9.30
2022-08-19T07:30:11.655Z,9.13
2022-08-19T07:32:40.368Z,9.30
2022-08-19T07:35:09.427Z,10.97
2022-08-19T07:37:38.194Z,10.80
2022-08-19T07:40:08.393Z,9.83
2022-08-19T07:42:35.375Z,11.57
2022-08-19T07:45:02.345Z,12.53
2022-08-19T07:47:48.056Z,12.60
2022-08-19T07:50:18.851Z,13.33
2022-08-19T07:52:48.994Z,14.10
2022-08-19T07:55:42.111Z,13.47
2022-08-19T07:58:15.337Z,14.73
2022-08-19T08:00:44.511Z,14.15
2022-08-19T08:03:12.579Z,14.15
2022-08-19T08:05:58.523Z,14.15
2022-08-19T08:08:47.891Z,14.85
2022-08-19T08:11:20.518Z,13.93
2022-08-19T08:14:00.484Z,13.70
2022-08-19T08:16:34.803Z,14.60
2022-08-19T08:19:01.791Z,15.23
2022-08-19T08:21:28.816Z,14.52
2022-08-19T08:23:56.712Z,15.38
2022-08-19T08:26:25.906Z,14.38
2022-08-19T08:28:54.264Z,22.08
2022-08-19T08:31:21.346Z,15.85
2022-08-19T08:33:48.899Z,16.30
2022-08-19T08:36:17.262Z,15.40
2022-08-19T08:38:49.005Z,15.30
2022-08-19T08:41:47.351Z,15.05
2022-08-19T08:47:31.561Z,11.38
2022-08-19T08:50:07.762Z,11.23
2022-08-19T08:52:51.373Z,11.02
2022-08-19T08:55:27.940Z,10.13
2022-08-19T08:58:21.592Z,9.77
2022-08-19T09:00:50.894Z,8.50
2022-08-19T09:03:23.162Z,6.68
2022-08-19T09:06:23.628Z,7.00
2022-08-19T09:09:23.225Z,6.78
2022-08-19T09:12:39.855Z,6.32
2022-08-19T09:15:14.456Z,5.60
2022-08-19T09:17:41.609Z,5.70
2022-08-19T09:20:11.758Z,5.97
2022-08-19T09:22:45.002Z,5.22
2022-08-19T09:25:17.090Z,6.05
2022-08-19T09:28:02.573Z,6.22
2022-08-19T09:30:35.523Z,4.97
2022-08-19T09:33:03.222Z,6.35
2022-08-19T09:35:31.387Z,5.60
2022-08-19T09:38:00.122Z,8.02
2022-08-19T09:40:35.470Z,7.43
2022-08-19T09:43:10.085Z,6.63
2022-08-19T09:45:40.443Z,7.47
2022-08-19T09:48:07.339Z,6.22
2022-08-19T09:50:39.468Z,7.00
2022-08-19T09:53:19.941Z,7.88
2022-08-19T09:55:46.966Z,7.47
2022-08-19T09:58:13.918Z,8.18
2022-08-19T10:00:40.922Z,7.82
2022-08-19T10:03:07.790Z,6.35
2022-08-19T10:05:55.201Z,5.57
2022-08-19T10:08:34.805Z,5.75
2022-08-19T10:11:28.340Z,6.60
2022-08-19T10:13:50.676Z,6.47
2022-08-19T10:16:22.435Z,5.93
2022-08-19T10:18:58.920Z,4.93
2022-08-19T10:21:32.106Z,4.60
2022-08-19T10:24:04.852Z,4.80
2022-08-19T10:26:37.914Z,5.30
2022-08-19T10:29:06.596Z,5.30
2022-08-19T10:32:02.219Z,5.72
2022-08-19T10:34:28.045Z,4.95
2022-08-19T10:37:01.010Z,4.45
2022-08-19T10:39:42.977Z,4.18
2022-08-19T10:42:11.635Z,5.05
2022-08-19T10:44:38.727Z,5.13
2022-08-19T10:47:24.373Z,5.72
2022-08-19T10:50:13.644Z,4.75
2022-08-19T10:52:49.865Z,5.05
2022-08-19T10:55:43.999Z,5.15
2022-08-19T10:58:14.592Z,4.93
2022-08-19T11:00:44.186Z,5.05
2022-08-19T11:03:11.930Z,5.38
2022-08-19T11:05:40.366Z,5.20
2022-08-19T11:08:22.170Z,5.70
2022-08-19T11:11:01.474Z,5.38
2022-08-19T11:13:30.977Z,6.18
2022-08-19T11:16:06.547Z,6.32
2022-08-19T11:18:38.651Z,6.85
2022-08-19T11:21:19.793Z,5.97
2022-08-19T11:23:50.127Z,5.50
2022-08-19T11:26:18.703Z,5.43
2022-08-19T11:28:47.980Z,4.68
2022-08-19T11:31:32.277Z,5.00
2022-08-19T11:34:04.850Z,4.90
2022-08-19T11:36:35.766Z,5.65
2022-08-19T11:39:06.066Z,5.55
2022-08-19T11:41:36.798Z,5.95
2022-08-19T11:44:05.462Z,5.88
2022-08-19T11:46:32.911Z,7.07
2022-08-19T11:49:01.687Z,7.78
2022-08-19T11:51:29.848Z,8.10
2022-08-19T11:53:59.420Z,7.28
2022-08-19T11:56:28.884Z,7.30
2022-08-19T11:58:57.775Z,6.47
2022-08-19T12:01:27.310Z,6.90
2022-08-19T12:03:57.541Z,6.75
2022-08-19T12:06:33.376Z,6.50
2022-08-19T12:09:06.574Z,5.68
2022-08-19T12:11:34.747Z,6.70
2022-08-19T12:14:01.996Z,4.65
2022-08-19T12:16:33.535Z,4.93
2022-08-19T12:19:04.803Z,4.85
2022-08-19T12:21:36.045Z,5.15
2022-08-19T12:24:06.016Z,6.25
2022-08-19T12:26:36.051Z,6.20
2022-08-19T12:29:24.017Z,8.02
2022-08-19T12:31:52.841Z,6.63
2022-08-19T12:34:21.019Z,6.40
2022-08-19T12:36:50.082Z,6.35
2022-08-19T12:39:17.230Z,5.90
2022-08-19T12:41:54.282Z,8.20
2022-08-19T12:44:29.007Z,6.63
2022-08-19T12:46:57.863Z,7.07
2022-08-19T12:49:53.160Z,6.97
2022-08-19T12:52:16.627Z,6.10
2022-08-19T12:54:48.488Z,6.88
2022-08-19T12:57:19.528Z,7.63
2022-08-19T12:59:46.560Z,7.45
2022-08-19T13:02:13.614Z,7.78
2022-08-19T13:04:41.731Z,7.45
2022-08-19T13:07:10.048Z,6.60
2022-08-19T13:09:37.193Z,6.28
2022-08-19T13:12:08.621Z,6.18
2022-08-19T13:14:36.284Z,6.40
2022-08-19T13:17:04.410Z,6.47
2022-08-19T13:19:32.490Z,5.93
2022-08-19T13:22:00.519Z,5.72
2022-08-19T13:24:33.611Z,5.35
2022-08-19T13:27:04.464Z,5.43
2022-08-19T13:29:50.397Z,5.50
2022-08-19T13:32:37.025Z,5.85
2022-08-19T13:35:05.996Z,4.68
2022-08-19T13:37:45.462Z,4.40
2022-08-19T13:40:24.942Z,4.40
2022-08-19T13:42:55.825Z,4.82
2022-08-19T13:45:26.989Z,4.45
2022-08-19T13:47:59.705Z,4.45
2022-08-19T13:50:34.532Z,4.30
2022-08-19T13:53:03.272Z,4.03
2022-08-19T13:55:31.008Z,3.70
2022-08-19T13:58:02.667Z,3.88
2022-08-19T14:00:36.732Z,4.13
2022-08-19T14:03:09.438Z,4.05
2022-08-19T14:05:37.529Z,3.67
2022-08-19T14:08:05.462Z,4.10
2022-08-19T14:10:33.236Z,4.60
2022-08-19T14:13:04.629Z,4.57
2022-08-19T14:15:32.188Z,4.93
2022-08-19T14:18:03.162Z,4.78
2022-08-19T14:20:30.539Z,6.13
2022-08-19T14:22:57.400Z,5.50
2022-08-19T14:25:28.981Z,5.15
2022-08-19T14:27:56.776Z,5.93
2022-08-19T14:30:33.379Z,5.43
2022-08-19T14:33:03.577Z,5.78
2022-08-19T14:35:36.124Z,6.18
2022-08-19T14:38:06.756Z,6.28
2022-08-19T14:40:34.420Z,5.88
2022-08-19T14:43:05.356Z,5.93
2022-08-19T14:45:40.755Z,5.45
2022-08-19T14:48:12.525Z,6.03
2022-08-19T14:50:47.424Z,6.10
2022-08-19T14:53:14.391Z,5.20
2022-08-19T14:55:46.755Z,6.15
2022-08-19T14:58:29.230Z,5.10
2022-08-19T15:01:00.214Z,5.72
2022-08-19T15:03:28.152Z,5.68
2022-08-19T15:05:58.511Z,5.65
2022-08-19T15:08:27.367Z,5.25
2022-08-19T15:10:54.748Z,4.75
2022-08-19T15:13:22.223Z,4.75
2022-08-19T15:15:49.813Z,4.50
2022-08-19T15:18:16.808Z,4.32
2022-08-19T15:20:46.639Z,5.25
2022-08-19T15:23:16.442Z,4.32
2022-08-19T15:25:44.404Z,4.35
2022-08-19T15:28:13.221Z,4.50
2022-08-19T15:30:41.506Z,3.58
2022-08-19T15:33:09.013Z,3.92
2022-08-19T15:35:35.887Z,4.20
2022-08-19T15:38:03.530Z,3.92
2022-08-19T15:40:30.644Z,4.47
2022-08-19T15:42:58.753Z,3.65
2022-08-19T15:45:32.474Z,4.80
2022-08-19T15:48:01.699Z,3.90
2022-08-19T15:50:31.826Z,4.30
2022-08-19T15:53:09.427Z,3.83
2022-08-19T15:55:44.451Z,3.85
2022-08-19T15:58:33.198Z,4.40
2022-08-19T16:01:26.973Z,5.28
2022-08-19T16:04:16.482Z,6.05
2022-08-19T16:06:53.638Z,4.88
2022-08-19T16:09:27.543Z,4.43
2022-08-19T16:12:02.805Z,5.05
2022-08-19T16:14:33.989Z,4.20
2022-08-19T16:17:01.934Z,5.20
2022-08-19T16:19:28.856Z,6.88
2022-08-19T16:21:57.349Z,6.05
2022-08-19T16:24:27.570Z,5.78
2022-08-19T16:26:55.878Z,5.45
2022-08-19T16:29:33.870Z,5.97
2022-08-19T16:32:10.306Z,4.82
2022-08-19T16:34:41.348Z,4.80
2022-08-19T16:37:10.038Z,4.72
2022-08-19T16:39:38.210Z,4.25
2022-08-19T16:42:07.809Z,4.53
2022-08-19T16:44:36.597Z,5.18
2022-08-19T16:47:03.675Z,4.60
2022-08-19T16:49:54.076Z,5.32
2022-08-19T16:52:19.797Z,5.20
2022-08-19T16:54:48.332Z,5.43
2022-08-19T16:57:16.007Z,4.93
2022-08-19T16:59:48.224Z,4.97
2022-08-19T17:02:18.227Z,5.25
2022-08-19T17:04:55.728Z,4.97
2022-08-19T17:07:33.158Z,5.03
2022-08-19T17:10:03.609Z,4.90
2022-08-19T17:12:34.996Z,5.10
2022-08-19T17:15:03.545Z,4.70
2022-08-19T17:17:31.521Z,4.65
2022-08-19T17:20:01.122Z,5.20
2022-08-19T17:22:28.748Z,5.50
2022-08-19T17:24:58.343Z,6.18
2022-08-19T17:27:32.248Z,4.85
2022-08-19T17:30:05.098Z,4.72
2022-08-19T17:32:34.971Z,5.10
2022-08-19T17:35:04.530Z,4.55
2022-08-19T17:37:31.491Z,5.47
2022-08-19T17:39:58.447Z,5.22
2022-08-19T17:42:25.394Z,5.45
2022-08-19T17:44:52.291Z,4.75
2022-08-19T17:47:20.090Z,4.50
2022-08-19T17:49:47.595Z,4.75
2022-08-19T17:52:14.560Z,4.90
2022-08-19T17:54:41.653Z,4.72
2022-08-19T17:57:09.500Z,4.80
2022-08-19T17:59:37.460Z,4.18
2022-08-19T18:02:07.030Z,4.40
2022-08-19T18:04:38.233Z,4.85
2022-08-19T18:07:06.228Z,4.45
2022-08-19T18:09:41.863Z,3.95
2022-08-19T18:12:15.578Z,4.18
2022-08-19T18:14:43.177Z,4.57
2022-08-19T18:17:14.292Z,5.20
2022-08-19T18:19:44.135Z,5.50
2022-08-19T18:22:33.851Z,4.80
2022-08-19T18:25:01.244Z,4.20
2022-08-19T18:27:28.366Z,4.00
2022-08-19T18:29:59.181Z,6.47
2022-08-19T18:32:34.981Z,4.35
2022-08-19T18:35:06.431Z,3.53
2022-08-19T18:37:33.330Z,4.53
2022-08-19T18:40:18.504Z,4.13
2022-08-19T18:43:06.115Z,3.72
2022-08-19T18:45:52.133Z,3.97
2022-08-19T18:48:38.191Z,3.30
2022-08-19T18:51:06.987Z,3.63
2022-08-19T18:53:38.307Z,3.92
2022-08-19T18:56:07.999Z,4.57
2022-08-19T18:58:36.173Z,4.53
2022-08-19T19:01:14.788Z,3.55
2022-08-19T19:03:53.272Z,5.25
2022-08-19T19:06:25.586Z,5.47
2022-08-19T19:08:54.908Z,7.05
2022-08-19T19:11:38.779Z,6.88
2022-08-19T19:14:23.022Z,4.77
2022-08-19T19:17:06.381Z,4.03
2022-08-19T19:19:34.772Z,4.00
2022-08-19T19:22:04.479Z,4.10
2022-08-19T19:24:37.670Z,3.90
2022-08-19T19:27:08.308Z,3.72
2022-08-19T19:29:37.032Z,6.18
2022-08-19T19:32:26.867Z,6.17
2022-08-19T19:34:54.367Z,6.40
2022-08-19T19:37:22.439Z,5.93
2022-08-19T19:39:49.727Z,6.30
2022-08-19T19:42:21.147Z,5.33
2022-08-19T19:44:51.817Z,6.47
2022-08-19T19:47:19.848Z,4.87
2022-08-19T19:52:41.294Z,5.27
2022-08-19T19:55:15.510Z,4.10
2022-08-19T19:57:42.484Z,4.20
2022-08-19T20:00:13.033Z,4.07
2022-08-19T20:02:39.904Z,4.07
2022-08-19T20:05:07.362Z,4.90
2022-08-19T20:07:52.630Z,4.30
2022-08-19T20:10:19.749Z,3.83
2022-08-19T20:12:46.634Z,4.10
2022-08-19T20:15:14.792Z,4.03
2022-08-19T20:17:42.936Z,5.07
2022-08-19T20:20:16.007Z,4.93
2022-08-19T20:22:45.809Z,5.87
2022-08-19T20:25:16.146Z,5.37
2022-08-19T20:27:43.905Z,5.43
2022-08-19T20:30:19.542Z,5.20
2022-08-19T20:32:50.560Z,4.63
2022-08-19T20:35:21.025Z,3.83
2022-08-19T20:37:49.141Z,4.53
2022-08-19T20:40:16.907Z,3.50
2022-08-19T20:42:50.476Z,4.57
2022-08-19T20:45:33.110Z,5.67
2022-08-19T20:48:02.803Z,4.97
2022-08-19T20:50:32.613Z,4.37
2022-08-19T20:52:59.852Z,5.70
2022-08-19T20:55:28.362Z,5.20
2022-08-19T20:57:55.554Z,5.20
2022-08-19T21:00:22.583Z,5.60
2022-08-19T21:02:49.472Z,4.73
2022-08-19T21:05:16.356Z,5.47
2022-08-19T21:07:44.314Z,4.57
2022-08-19T21:10:11.718Z,3.93
2022-08-19T21:12:39.269Z,4.67
2022-08-19T21:15:07.142Z,4.40
2022-08-19T21:17:34.126Z,5.07
2022-08-19T21:20:01.079Z,4.73
2022-08-19T21:22:28.125Z,4.70
2022-08-19T21:24:55.093Z,3.87
2022-08-19T21:27:22.007Z,4.93
2022-08-19T21:29:49.039Z,4.73
2022-08-19T21:32:16.713Z,5.43
2022-08-19T21:34:46.340Z,5.47
2022-08-19T21:37:25.287Z,5.57
2022-08-19T21:39:56.885Z,4.60
2022-08-19T21:42:24.699Z,5.67
2022-08-19T21:44:51.940Z,5.77
2022-08-19T21:47:19.897Z,4.27
2022-08-19T21:49:46.903Z,5.10
2022-08-19T21:52:23.570Z,5.37
2022-08-19T21:54:51.177Z,5.40
2022-08-19T21:57:18.781Z,4.57
2022-08-19T21:59:45.805Z,6.00
2022-08-19T22:02:20.348Z,4.40
2022-08-19T22:04:50.825Z,4.73
2022-08-19T22:07:19.505Z,4.70
2022-08-19T22:09:49.794Z,4.00
2022-08-19T22:12:36.417Z,3.60
2022-08-19T22:15:07.971Z,4.00
2022-08-19T22:17:36.155Z,3.53
2022-08-19T22:20:04.988Z,4.03
2022-08-19T22:22:34.969Z,4.03
2022-08-19T22:25:31.222Z,4.30
2022-08-19T22:28:01.856Z,4.53
2022-08-19T22:30:33.339Z,4.13
2022-08-19T22:33:05.324Z,5.47
2022-08-19T22:35:37.655Z,4.87
2022-08-19T22:38:07.498Z,4.37
2022-08-19T22:40:39.512Z,4.03
2022-08-19T22:43:19.004Z,3.77
2022-08-19T22:45:48.595Z,4.53
2022-08-19T22:48:19.688Z,4.47
2022-08-19T22:51:08.267Z,4.33
2022-08-19T22:53:39.236Z,4.57
2022-08-19T22:56:14.978Z,5.60
2022-08-19T22:58:43.851Z,4.97
2022-08-19T23:01:23.730Z,4.97
2022-08-19T23:03:56.702Z,5.13
2022-08-19T23:06:23.864Z,5.00
2022-08-19T23:09:01.128Z,6.83
2022-08-19T23:11:29.236Z,4.70
2022-08-19T23:13:56.139Z,4.57
2022-08-19T23:16:23.343Z,4.30
2022-08-19T23:18:50.262Z,4.83
2022-08-19T23:21:24.665Z,4.43
2022-08-19T23:23:51.619Z,3.90
2022-08-19T23:26:18.470Z,3.47
2022-08-19T23:29:04.151Z,4.33
2022-08-19T23:31:31.605Z,3.53
2022-08-19T23:33:59.882Z,4.17
2022-08-19T23:36:27.121Z,3.33
2022-08-19T23:38:54.615Z,3.10
2022-08-19T23:41:23.282Z,3.47
2022-08-19T23:43:50.839Z,3.07
2022-08-19T23:46:27.450Z,3.10
2022-08-19T23:48:56.913Z,2.20
2022-08-19T23:51:24.546Z,3.00
2022-08-19T23:53:51.484Z,3.47
2022-08-19T23:56:18.431Z,5.20
2022-08-19T23:58:47.086Z,4.30
